createdAt,value
2023-01-28T00:02:41.751Z,4.10
2023-01-28T00:05:29.794Z,4.33
2023-01-28T00:08:15.763Z,1.97
2023-01-28T00:11:04.692Z,2.83
2023-01-28T00:13:54.529Z,3.43
2023-01-28T00:16:40.330Z,2.23
2023-01-28T00:19:25.858Z,2.00
2023-01-28T00:22:11.903Z,2.40
2023-01-28T00:25:06.351Z,1.40
2023-01-28T00:27:56.489Z,5.17
2023-01-28T00:30:42.328Z,3.23
2023-01-28T00:33:29.458Z,2.97
2023-01-28T00:36:17.665Z,5.13
2023-01-28T00:39:03.527Z,2.83
2023-01-28T00:41:49.215Z,2.97
2023-01-28T00:44:36.503Z,2.90
2023-01-28T00:47:22.386Z,1.47
2023-01-28T00:50:08.838Z,3.03
2023-01-28T00:52:54.456Z,2.30
2023-01-28T00:55:40.411Z,5.93
2023-01-28T00:58:28.340Z,3.07
2023-01-28T01:01:18.582Z,3.17
2023-01-28T01:04:04.678Z,3.17
2023-01-28T01:06:50.409Z,2.53
2023-01-28T01:09:36.588Z,3.60
2023-01-28T01:12:22.700Z,1.60
2023-01-28T01:15:10.603Z,2.37
2023-01-28T01:17:57.370Z,1.97
2023-01-28T01:20:45.577Z,1.80
2023-01-28T01:23:31.776Z,1.57
2023-01-28T01:26:18.600Z,1.70
2023-01-28T01:29:04.948Z,2.37
2023-01-28T01:31:50.679Z,2.00
2023-01-28T01:34:37.426Z,4.10
2023-01-28T01:37:23.174Z,1.83
2023-01-28T01:40:11.257Z,2.90
2023-01-28T01:42:57.497Z,4.03
2023-01-28T01:45:44.520Z,1.07
2023-01-28T01:48:34.169Z,2.57
2023-01-28T01:51:26.129Z,2.83
2023-01-28T01:54:12.253Z,3.20
2023-01-28T01:56:59.710Z,3.43
2023-01-28T01:59:45.384Z,2.13
2023-01-28T02:02:48.580Z,4.03
2023-01-28T02:05:35.072Z,1.87
2023-01-28T02:08:21.183Z,1.90
2023-01-28T02:11:08.677Z,3.13
2023-01-28T02:13:57.286Z,3.50
2023-01-28T02:16:43.345Z,1.83
2023-01-28T02:19:48.455Z,2.47
2023-01-28T02:23:13.799Z,3.50
2023-01-28T02:26:16.927Z,3.23
2023-01-28T02:29:17.482Z,4.87
2023-01-28T02:32:30.906Z,5.67
2023-01-28T02:35:29.569Z,4.13
2023-01-28T02:38:31.427Z,3.20
2023-01-28T02:41:31.915Z,2.70
2023-01-28T02:44:17.561Z,3.37
2023-01-28T02:47:28.850Z,4.40
2023-01-28T02:50:18.008Z,4.43
2023-01-28T02:53:41.472Z,5.80
2023-01-28T02:57:02.451Z,10.53
2023-01-28T03:00:22.173Z,3.70
2023-01-28T03:03:46.196Z,7.80
2023-01-28T03:06:42.103Z,4.50
2023-01-28T03:09:27.842Z,4.50
2023-01-28T03:12:39.270Z,4.27
2023-01-28T03:15:50.929Z,3.70
2023-01-28T03:19:09.517Z,4.77
2023-01-28T03:22:15.426Z,4.03
2023-01-28T03:25:21.620Z,3.47
2023-01-28T03:28:33.503Z,4.43
2023-01-28T03:31:41.312Z,7.37
2023-01-28T03:34:46.457Z,3.60
2023-01-28T03:37:33.859Z,4.33
2023-01-28T03:40:35.695Z,4.40
2023-01-28T03:43:21.639Z,2.53
2023-01-28T03:46:07.350Z,3.17
2023-01-28T03:48:53.807Z,2.97
2023-01-28T03:51:40.927Z,4.20
2023-01-28T03:54:26.506Z,4.93
2023-01-28T03:57:12.573Z,2.73
2023-01-28T03:59:59.043Z,5.60
2023-01-28T04:02:46.197Z,5.03
2023-01-28T04:05:35.489Z,4.27
2023-01-28T04:08:22.719Z,1.80
2023-01-28T04:11:37.890Z,1.53
2023-01-28T04:14:25.512Z,2.77
2023-01-28T04:17:23.230Z,2.33
2023-01-28T04:20:10.666Z,3.53
2023-01-28T04:22:56.701Z,3.13
2023-01-28T04:25:42.699Z,2.17
2023-01-28T04:28:28.691Z,2.93
2023-01-28T04:31:14.905Z,2.20
2023-01-28T04:34:01.271Z,4.03
2023-01-28T04:36:58.428Z,1.20
2023-01-28T04:40:02.854Z,1.83
2023-01-28T04:43:09.002Z,1.20
2023-01-28T04:46:06.197Z,2.47
2023-01-28T04:49:02.116Z,4.03
2023-01-28T04:52:11.329Z,1.53
2023-01-28T04:55:17.784Z,1.77
2023-01-28T04:58:05.144Z,1.70
2023-01-28T05:00:56.348Z,4.57
2023-01-28T05:03:42.453Z,2.53
2023-01-28T05:06:33.274Z,4.43
2023-01-28T05:09:24.870Z,3.00
2023-01-28T05:12:11.383Z,3.00
2023-01-28T05:15:00.643Z,1.80
2023-01-28T05:17:47.476Z,1.47
2023-01-28T05:20:36.107Z,2.57
2023-01-28T05:23:23.148Z,3.13
2023-01-28T05:26:12.828Z,2.20
2023-01-28T05:28:58.847Z,4.10
2023-01-28T05:31:44.828Z,4.40
2023-01-28T05:34:30.809Z,3.27
2023-01-28T05:37:19.461Z,2.97
2023-01-28T05:40:06.805Z,3.17
2023-01-28T05:42:52.686Z,2.37
2023-01-28T05:45:51.278Z,2.43
2023-01-28T05:48:51.012Z,4.33
2023-01-28T05:51:55.767Z,1.97
2023-01-28T05:54:42.203Z,2.37
2023-01-28T05:57:28.033Z,1.60
2023-01-28T06:00:16.221Z,1.53
2023-01-28T06:03:03.480Z,2.07
2023-01-28T06:05:50.044Z,2.50
2023-01-28T06:08:37.396Z,3.23
2023-01-28T06:11:23.488Z,1.20
2023-01-28T06:14:13.198Z,2.43
2023-01-28T06:17:10.373Z,1.53
2023-01-28T06:20:17.430Z,2.77
2023-01-28T06:23:05.761Z,1.63
2023-01-28T06:25:57.855Z,3.87
2023-01-28T06:28:44.493Z,7.27
2023-01-28T06:31:30.441Z,4.00
2023-01-28T06:34:16.544Z,3.33
2023-01-28T06:37:04.276Z,3.60
2023-01-28T06:39:50.263Z,3.13
2023-01-28T06:42:35.979Z,3.50
2023-01-28T06:45:21.870Z,2.90
2023-01-28T06:48:08.908Z,2.70
2023-01-28T06:50:55.290Z,5.20
2023-01-28T06:53:41.040Z,5.73
2023-01-28T06:56:26.663Z,2.17
2023-01-28T06:59:12.537Z,4.47
2023-01-28T07:01:58.623Z,3.00
2023-01-28T07:04:44.812Z,4.63
2023-01-28T07:07:30.724Z,4.63
2023-01-28T07:10:17.690Z,3.47
2023-01-28T07:13:04.098Z,3.40
2023-01-28T07:15:50.756Z,2.40
2023-01-28T07:18:36.700Z,3.53
2023-01-28T07:21:22.402Z,2.90
2023-01-28T07:24:08.555Z,2.83
2023-01-28T07:26:54.681Z,4.50
2023-01-28T07:29:40.895Z,3.40
2023-01-28T07:32:27.618Z,5.13
2023-01-28T07:35:14.332Z,4.10
2023-01-28T07:38:01.350Z,3.47
2023-01-28T07:40:47.229Z,5.73
2023-01-28T07:43:33.351Z,6.10
2023-01-28T07:46:20.006Z,3.37
2023-01-28T07:49:06.135Z,4.77
2023-01-28T07:51:52.696Z,4.07
2023-01-28T07:54:39.021Z,4.40
2023-01-28T07:57:26.949Z,3.53
2023-01-28T08:00:17.538Z,4.17
2023-01-28T08:03:14.535Z,4.17
2023-01-28T08:06:00.617Z,3.47
2023-01-28T08:08:47.846Z,5.90
2023-01-28T08:11:35.799Z,4.40
2023-01-28T08:14:22.135Z,5.20
2023-01-28T08:17:07.931Z,4.13
2023-01-28T08:19:54.102Z,4.63
2023-01-28T08:22:40.278Z,4.87
2023-01-28T08:25:26.055Z,2.50
2023-01-28T08:28:13.694Z,6.00
2023-01-28T08:31:01.522Z,3.23
2023-01-28T08:33:47.639Z,2.50
2023-01-28T08:36:33.595Z,4.90
2023-01-28T08:39:19.650Z,5.20
2023-01-28T08:42:07.108Z,10.30
2023-01-28T08:44:53.088Z,4.37
2023-01-28T08:47:52.059Z,2.83
2023-01-28T08:50:40.256Z,4.17
2023-01-28T08:53:26.856Z,79.97
2023-01-28T08:56:12.559Z,6.60
2023-01-28T08:58:59.274Z,5.83
2023-01-28T09:01:45.864Z,5.40
2023-01-28T09:04:32.036Z,3.90
2023-01-28T09:07:18.117Z,2.57
2023-01-28T09:10:06.027Z,5.27
2023-01-28T09:12:52.427Z,2.80
2023-01-28T09:15:38.557Z,4.27
2023-01-28T09:18:24.632Z,2.70
2023-01-28T09:21:10.791Z,3.73
2023-01-28T09:23:55.785Z,3.00
2023-01-28T09:26:23.249Z,3.90
2023-01-28T09:28:50.581Z,3.57
2023-01-28T09:31:18.221Z,2.57
2023-01-28T09:33:47.800Z,2.73
2023-01-28T09:36:15.088Z,2.50
2023-01-28T09:38:42.550Z,2.20
2023-01-28T09:41:27.465Z,3.33
2023-01-28T09:44:40.999Z,3.30
2023-01-28T09:47:19.010Z,2.97
2023-01-28T09:49:51.771Z,3.87
2023-01-28T09:52:24.226Z,3.30
2023-01-28T09:55:04.177Z,2.30
2023-01-28T09:57:55.579Z,4.40
2023-01-28T10:00:32.353Z,5.67
2023-01-28T10:03:36.784Z,3.63
2023-01-28T10:06:42.820Z,3.67
2023-01-28T10:09:38.420Z,4.20
2023-01-28T10:12:11.779Z,4.93
2023-01-28T10:14:56.291Z,5.00
2023-01-28T10:17:33.635Z,4.53
2023-01-28T10:20:20.966Z,3.27
2023-01-28T10:23:05.721Z,3.47
2023-01-28T10:25:34.691Z,4.30
2023-01-28T10:28:02.515Z,2.77
2023-01-28T10:30:35.423Z,5.53
2023-01-28T10:33:18.304Z,4.73
2023-01-28T10:35:46.147Z,4.70
2023-01-28T10:38:17.604Z,4.87
2023-01-28T10:40:48.164Z,3.30
2023-01-28T10:43:24.852Z,4.07
2023-01-28T10:46:22.672Z,2.90
2023-01-28T10:49:24.122Z,3.40
2023-01-28T10:51:51.516Z,3.47
2023-01-28T10:54:24.705Z,4.03
2023-01-28T10:57:05.735Z,2.73
2023-01-28T10:59:41.884Z,10.13
2023-01-28T11:02:26.231Z,2.77
2023-01-28T11:05:22.447Z,2.63
2023-01-28T11:07:51.645Z,7.90
2023-01-28T11:10:34.636Z,3.37
2023-01-28T11:13:23.020Z,2.10
2023-01-28T11:15:55.950Z,2.57
2023-01-28T11:18:33.500Z,5.63
2023-01-28T11:21:06.071Z,4.10
2023-01-28T11:23:46.216Z,3.40
2023-01-28T11:26:22.835Z,3.80
2023-01-28T11:28:51.299Z,4.43
2023-01-28T11:31:21.922Z,4.13
2023-01-28T11:34:02.058Z,3.50
2023-01-28T11:36:36.216Z,6.33
2023-01-28T11:39:27.626Z,5.33
2023-01-28T11:41:55.953Z,3.00
2023-01-28T11:44:28.081Z,5.60
2023-01-28T11:47:17.850Z,3.73
2023-01-28T11:49:51.455Z,3.47
2023-01-28T11:52:21.601Z,3.77
2023-01-28T11:55:11.061Z,3.57
2023-01-28T11:57:54.131Z,4.73
2023-01-28T12:01:01.723Z,4.87
2023-01-28T12:04:09.522Z,2.80
2023-01-28T12:07:11.005Z,2.80
2023-01-28T12:10:17.464Z,3.90
2023-01-28T12:12:55.038Z,4.77
2023-01-28T12:16:00.456Z,3.97
2023-01-28T12:18:52.239Z,4.37
2023-01-28T12:21:44.238Z,4.87
2023-01-28T12:24:35.761Z,4.97
2023-01-28T12:27:40.855Z,4.67
2023-01-28T12:30:35.690Z,4.23
2023-01-28T12:33:46.907Z,3.63
2023-01-28T12:36:49.002Z,4.47
2023-01-28T12:40:02.317Z,4.33
2023-01-28T12:44:00.279Z,6.07
2023-01-28T12:46:59.366Z,4.43
2023-01-28T12:50:18.195Z,9.43
2023-01-28T12:53:22.664Z,3.80
2023-01-28T12:56:16.706Z,5.50
2023-01-28T12:59:08.953Z,6.87
2023-01-28T13:02:34.825Z,10.47
2023-01-28T13:05:23.218Z,3.77
2023-01-28T13:08:19.109Z,4.23
2023-01-28T13:10:53.723Z,5.47
2023-01-28T13:13:40.213Z,4.77
2023-01-28T13:16:21.271Z,4.57
2023-01-28T13:19:29.990Z,4.67
2023-01-28T13:22:16.375Z,4.57
2023-01-28T13:24:56.247Z,4.83
2023-01-28T13:27:35.656Z,5.83
2023-01-28T13:30:33.739Z,5.23
2023-01-28T13:33:07.120Z,5.33
2023-01-28T13:35:41.083Z,7.03
2023-01-28T13:38:16.239Z,6.33
2023-01-28T13:40:52.981Z,7.87
2023-01-28T13:43:38.562Z,5.33
2023-01-28T13:46:27.316Z,6.67
2023-01-28T13:48:58.187Z,6.60
2023-01-28T13:51:35.823Z,6.73
2023-01-28T13:54:14.323Z,6.13
2023-01-28T13:57:02.820Z,5.00
2023-01-28T14:00:02.901Z,5.17
2023-01-28T14:03:04.310Z,4.90
2023-01-28T14:05:54.128Z,12.37
2023-01-28T14:08:52.666Z,8.97
2023-01-28T14:11:52.961Z,4.10
2023-01-28T14:15:07.706Z,4.87
2023-01-28T14:17:54.909Z,4.97
2023-01-28T14:20:39.582Z,4.53
2023-01-28T14:23:17.563Z,3.50
2023-01-28T14:25:47.736Z,3.40
2023-01-28T14:29:01.273Z,5.37
2023-01-28T14:31:34.142Z,4.03
2023-01-28T14:34:34.977Z,3.90
2023-01-28T14:37:06.861Z,4.07
2023-01-28T14:39:45.779Z,4.57
2023-01-28T14:42:20.771Z,5.07
2023-01-28T14:45:00.789Z,6.57
2023-01-28T14:47:46.096Z,4.60
2023-01-28T14:50:34.100Z,4.47
2023-01-28T14:53:38.119Z,5.07
2023-01-28T14:56:30.032Z,6.00
2023-01-28T14:59:21.082Z,5.37
2023-01-28T15:01:49.967Z,7.00
2023-01-28T15:04:37.317Z,5.80
2023-01-28T15:07:18.539Z,5.03
2023-01-28T15:09:47.675Z,5.17
2023-01-28T15:12:17.261Z,5.17
2023-01-28T15:14:46.057Z,4.90
2023-01-28T15:17:26.949Z,5.90
2023-01-28T15:19:57.372Z,9.27
2023-01-28T15:22:28.240Z,9.03
2023-01-28T15:24:56.438Z,5.20
2023-01-28T15:27:30.923Z,5.07
2023-01-28T15:29:59.879Z,4.57
2023-01-28T15:32:30.640Z,4.93
2023-01-28T15:35:01.316Z,5.30
2023-01-28T15:37:28.632Z,6.83
2023-01-28T15:40:07.040Z,5.70
2023-01-28T15:42:34.987Z,8.93
2023-01-28T15:45:02.317Z,7.93
2023-01-28T15:47:33.847Z,6.30
2023-01-28T15:50:07.457Z,7.63
2023-01-28T15:52:41.319Z,8.83
2023-01-28T15:55:39.267Z,8.00
2023-01-28T15:58:12.367Z,6.43
2023-01-28T16:00:42.530Z,7.60
2023-01-28T16:03:10.857Z,7.10
2023-01-28T16:05:41.455Z,7.50
2023-01-28T16:08:12.752Z,8.90
2023-01-28T16:10:39.925Z,7.37
2023-01-28T16:13:11.098Z,8.97
2023-01-28T16:15:39.360Z,11.77
2023-01-28T16:18:07.060Z,6.67
2023-01-28T16:20:34.343Z,10.70
2023-01-28T16:23:03.953Z,6.80
2023-01-28T16:25:35.012Z,9.00
2023-01-28T16:28:03.528Z,8.60
2023-01-28T16:30:31.002Z,6.83
2023-01-28T16:32:58.525Z,7.57
2023-01-28T16:35:42.562Z,10.67
2023-01-28T16:38:17.173Z,8.40
2023-01-28T16:40:46.285Z,8.83
2023-01-28T16:43:15.594Z,8.50
2023-01-28T16:45:43.301Z,8.83
2023-01-28T16:48:10.791Z,9.00
2023-01-28T16:50:42.968Z,9.00
2023-01-28T16:53:25.631Z,8.37
2023-01-28T16:55:53.905Z,9.03
2023-01-28T16:58:25.829Z,10.97
2023-01-28T17:00:53.454Z,9.60
2023-01-28T17:03:20.760Z,7.43
2023-01-28T17:05:47.999Z,9.47
2023-01-28T17:08:15.372Z,10.47
2023-01-28T17:10:42.506Z,8.37
2023-01-28T17:13:09.580Z,9.20
2023-01-28T17:15:36.839Z,8.37
2023-01-28T17:18:04.041Z,8.17
2023-01-28T17:20:31.162Z,10.17
2023-01-28T17:22:58.410Z,8.90
2023-01-28T17:25:25.890Z,9.47
2023-01-28T17:27:52.916Z,9.30
2023-01-28T17:30:20.718Z,14.77
2023-01-28T17:32:47.908Z,10.07
2023-01-28T17:35:15.864Z,11.40
2023-01-28T17:37:43.319Z,9.80
2023-01-28T17:40:12.579Z,9.60
2023-01-28T17:42:39.813Z,11.43
2023-01-28T17:45:07.491Z,13.83
2023-01-28T17:47:34.569Z,10.77
2023-01-28T17:50:02.868Z,12.20
2023-01-28T17:52:30.756Z,13.13
2023-01-28T17:54:57.791Z,13.23
2023-01-28T17:57:25.450Z,10.80
2023-01-28T17:59:52.523Z,12.13
2023-01-28T18:02:19.687Z,13.23
2023-01-28T18:04:46.947Z,12.70
2023-01-28T18:07:14.171Z,12.17
2023-01-28T18:09:44.010Z,15.13
2023-01-28T18:12:14.205Z,13.67
2023-01-28T18:14:41.890Z,14.67
2023-01-28T18:17:09.477Z,13.47
2023-01-28T18:19:36.690Z,13.27
2023-01-28T18:22:03.855Z,13.57
2023-01-28T18:24:31.180Z,17.83
2023-01-28T18:27:00.017Z,13.70
2023-01-28T18:29:29.558Z,15.97
2023-01-28T18:31:58.059Z,15.70
2023-01-28T18:34:28.476Z,14.30
2023-01-28T18:36:57.236Z,12.83
2023-01-28T18:39:30.116Z,13.17
2023-01-28T18:41:58.616Z,13.83
2023-01-28T18:44:30.008Z,14.30
2023-01-28T18:46:57.164Z,13.67
2023-01-28T18:49:24.494Z,13.33
2023-01-28T18:51:51.673Z,17.83
2023-01-28T18:54:20.362Z,17.13
2023-01-28T18:56:49.322Z,13.63
2023-01-28T18:59:16.586Z,16.60
2023-01-28T19:01:44.252Z,15.43
2023-01-28T19:04:11.636Z,14.20
2023-01-28T19:06:38.967Z,18.23
2023-01-28T19:09:07.359Z,16.30
2023-01-28T19:11:35.712Z,14.50
2023-01-28T19:14:02.912Z,18.70
2023-01-28T19:16:30.600Z,18.83
2023-01-28T19:19:00.899Z,17.60
2023-01-28T19:21:30.092Z,16.73
2023-01-28T19:24:06.625Z,18.93
2023-01-28T19:26:34.251Z,18.20
2023-01-28T19:29:01.765Z,19.50
2023-01-28T19:31:29.412Z,19.53
2023-01-28T19:33:59.489Z,20.50
2023-01-28T19:36:29.941Z,21.60
2023-01-28T19:38:59.565Z,19.43
2023-01-28T19:41:28.405Z,21.00
2023-01-28T19:43:57.234Z,21.93
2023-01-28T19:46:25.445Z,23.90
2023-01-28T19:48:52.843Z,24.67
2023-01-28T19:51:21.024Z,24.90
2023-01-28T19:53:54.361Z,26.63
2023-01-28T19:56:24.325Z,24.13
2023-01-28T19:58:54.595Z,27.17
2023-01-28T20:01:30.231Z,28.93
2023-01-28T20:04:00.234Z,25.23
2023-01-28T20:06:30.253Z,27.63
2023-01-28T20:09:07.891Z,25.40
2023-01-28T20:11:35.805Z,23.80
2023-01-28T20:14:03.039Z,25.13
2023-01-28T20:16:32.830Z,25.20
2023-01-28T20:19:04.919Z,24.83
2023-01-28T20:21:33.629Z,25.93
2023-01-28T20:24:03.073Z,22.57
2023-01-28T20:26:35.430Z,25.93
2023-01-28T20:29:11.789Z,30.43
2023-01-28T20:31:41.219Z,29.27
2023-01-28T20:34:17.592Z,27.60
2023-01-28T20:36:45.249Z,27.00
2023-01-28T20:39:13.541Z,25.87
2023-01-28T20:41:40.627Z,26.77
2023-01-28T20:44:07.717Z,27.47
2023-01-28T20:46:36.568Z,24.23
2023-01-28T20:49:06.482Z,25.00
2023-01-28T20:51:35.879Z,27.20
2023-01-28T20:54:03.256Z,26.27
2023-01-28T20:56:31.322Z,27.13
2023-01-28T20:59:04.446Z,29.57
2023-01-28T21:01:35.496Z,28.30
2023-01-28T21:04:06.959Z,26.23
2023-01-28T21:06:36.476Z,26.97
2023-01-28T21:09:04.662Z,26.77
2023-01-28T21:11:32.042Z,31.60
2023-01-28T21:13:59.059Z,28.87
2023-01-28T21:16:26.963Z,29.27
2023-01-28T21:18:54.037Z,34.37
2023-01-28T21:21:27.124Z,33.53
2023-01-28T21:23:57.664Z,32.80
2023-01-28T21:26:25.316Z,37.93
2023-01-28T21:28:52.856Z,39.83
2023-01-28T21:31:26.288Z,40.30
2023-01-28T21:33:55.909Z,39.70
2023-01-28T21:36:24.262Z,46.17
2023-01-28T21:39:00.187Z,50.67
2023-01-28T21:41:27.801Z,53.63
2023-01-28T21:43:57.548Z,57.60
2023-01-28T21:46:31.218Z,58.97
2023-01-28T21:49:01.506Z,56.47
2023-01-28T21:51:35.495Z,63.07
2023-01-28T21:54:05.548Z,63.17
2023-01-28T21:56:32.885Z,66.53
2023-01-28T21:59:25.144Z,69.10
2023-01-28T22:01:52.376Z,79.37
2023-01-28T22:04:19.740Z,74.10
2023-01-28T22:06:46.914Z,73.87
2023-01-28T22:09:14.307Z,77.77
2023-01-28T22:11:45.545Z,74.17
2023-01-28T22:14:13.280Z,70.90
2023-01-28T22:16:41.067Z,71.97
2023-01-28T22:19:08.671Z,76.67
2023-01-28T22:21:40.925Z,76.17
2023-01-28T22:24:15.158Z,80.47
2023-01-28T22:26:43.796Z,68.00
2023-01-28T22:29:12.597Z,79.87
2023-01-28T22:31:40.188Z,84.50
2023-01-28T22:34:07.928Z,80.63
2023-01-28T22:36:36.117Z,77.03
2023-01-28T22:39:06.076Z,69.63
2023-01-28T22:41:33.403Z,86.37
2023-01-28T22:44:01.663Z,74.80
2023-01-28T22:46:29.520Z,83.70
2023-01-28T22:48:56.734Z,75.80
2023-01-28T22:51:27.293Z,77.73
2023-01-28T22:53:54.807Z,71.40
2023-01-28T22:56:25.983Z,80.67
2023-01-28T22:58:59.039Z,67.17
2023-01-28T23:01:27.106Z,61.97
2023-01-28T23:03:56.085Z,62.63
2023-01-28T23:06:25.582Z,59.53
2023-01-28T23:08:52.726Z,59.67
2023-01-28T23:11:27.341Z,53.10
2023-01-28T23:14:20.150Z,53.27
2023-01-28T23:17:06.142Z,50.73
2023-01-28T23:19:52.772Z,51.67
2023-01-28T23:22:44.486Z,44.50
2023-01-28T23:25:11.906Z,45.13
2023-01-28T23:27:39.065Z,43.77
2023-01-28T23:30:10.522Z,42.90
2023-01-28T23:32:47.587Z,45.70
2023-01-28T23:35:15.049Z,50.00
2023-01-28T23:37:42.270Z,48.10
2023-01-28T23:40:13.484Z,47.33
2023-01-28T23:42:41.808Z,48.67
2023-01-28T23:45:10.433Z,49.47
2023-01-28T23:47:40.019Z,52.23
2023-01-28T23:50:08.083Z,52.90
2023-01-28T23:52:35.745Z,44.97
2023-01-28T23:55:04.128Z,48.93
2023-01-28T23:57:31.496Z,51.10
2023-01-28T23:59:58.659Z,47.17
